Time;durP1;ratioP1;P1;durP2;ratioP2;P2;SDS_P1;SDS_P2;PMS_P1;PMS_P2;Temp;Humidity;BMP_temperature;BMP_pressure;BME280_temperature;BME280_humidity;BME280_pressure;Samples;Min_cycle;Max_cycle;Signal;HPM_P1;HPM_P2
2023/04/15 00:00:37;;;;;;;12.35;4.53;;;5.70;99.90;;;;;;4998021;28;20056;-69
2023/04/15 00:03:04;;;;;;;10.82;4.55;;;5.60;99.90;;;;;;4998433;28;21966;-69
2023/04/15 00:05:30;;;;;;;9.50;4.53;;;5.60;99.90;;;;;;5004700;28;20040;-69
2023/04/15 00:07:57;;;;;;;7.90;4.00;;;5.60;99.90;;;;;;5007527;28;20033;-68
2023/04/15 00:10:23;;;;;;;8.48;4.78;;;5.60;99.90;;;;;;5012346;28;20052;-69
2023/04/15 00:12:49;;;;;;;7.47;4.28;;;5.50;99.90;;;;;;5010186;28;20057;-68
2023/04/15 00:15:15;;;;;;;7.25;4.68;;;5.50;99.90;;;;;;5010210;28;20099;-69
2023/04/15 00:17:41;;;;;;;8.20;4.22;;;5.50;99.90;;;;;;4988792;28;20038;-68
2023/04/15 00:20:08;;;;;;;9.93;4.30;;;5.40;99.90;;;;;;5003546;28;20048;-69
2023/04/15 00:22:33;;;;;;;8.82;4.55;;;5.40;99.90;;;;;;4991151;28;20042;-68
2023/04/15 00:24:59;;;;;;;11.77;4.57;;;5.40;99.90;;;;;;5007896;28;20400;-68
2023/04/15 00:27:25;;;;;;;8.20;4.47;;;5.30;99.90;;;;;;5013138;28;20049;-68
2023/04/15 00:29:50;;;;;;;11.32;5.07;;;5.30;99.90;;;;;;5004871;28;20030;-68
2023/04/15 00:32:16;;;;;;;9.05;4.80;;;5.20;99.90;;;;;;5007252;28;20037;-68
2023/04/15 00:34:41;;;;;;;10.75;4.85;;;5.20;99.90;;;;;;5004035;28;20049;-68
2023/04/15 00:37:09;;;;;;;9.38;4.72;;;5.20;99.90;;;;;;5005209;28;20453;-68
2023/04/15 00:39:35;;;;;;;9.93;5.05;;;5.10;99.90;;;;;;4995534;28;20037;-69
2023/04/15 00:42:01;;;;;;;9.35;4.88;;;5.10;99.90;;;;;;5004618;28;20091;-68
2023/04/15 00:44:27;;;;;;;12.40;5.05;;;5.10;99.90;;;;;;5006835;28;20064;-68
2023/04/15 00:46:53;;;;;;;8.75;5.00;;;5.10;99.90;;;;;;5003550;28;20477;-69
2023/04/15 00:49:19;;;;;;;8.07;3.92;;;5.00;99.90;;;;;;5005144;28;20635;-69
2023/04/15 00:51:45;;;;;;;6.85;4.05;;;5.00;99.90;;;;;;5003507;28;20052;-68
2023/04/15 00:54:11;;;;;;;9.68;4.53;;;5.00;99.90;;;;;;5004907;28;20037;-69
2023/04/15 00:56:39;;;;;;;8.18;4.63;;;4.90;99.90;;;;;;5002529;28;20041;-69
2023/04/15 00:59:05;;;;;;;10.50;5.05;;;5.00;99.90;;;;;;4998985;28;20152;-69
2023/04/15 01:01:34;;;;;;;8.60;4.22;;;4.90;99.90;;;;;;4998938;28;20046;-69
2023/04/15 01:04:00;;;;;;;9.30;5.03;;;4.90;99.90;;;;;;4997100;28;20072;-68
2023/04/15 01:06:27;;;;;;;10.73;5.07;;;4.80;99.90;;;;;;4994570;28;20045;-68
2023/04/15 01:08:53;;;;;;;9.30;4.93;;;4.80;99.90;;;;;;4998380;28;20532;-68
2023/04/15 01:11:19;;;;;;;7.80;4.65;;;4.80;99.90;;;;;;4997493;28;20477;-68
2023/04/15 01:13:45;;;;;;;7.43;4.63;;;4.70;99.90;;;;;;5003205;28;20038;-70
2023/04/15 01:16:11;;;;;;;12.32;5.60;;;4.60;99.90;;;;;;4997967;28;20485;-69
2023/04/15 01:18:38;;;;;;;10.13;5.40;;;4.60;99.90;;;;;;5000395;28;20099;-68
2023/04/15 01:21:04;;;;;;;9.38;5.13;;;4.60;99.90;;;;;;4998616;28;20045;-68
2023/04/15 01:23:31;;;;;;;9.15;5.28;;;4.60;99.90;;;;;;5000253;28;20119;-70
2023/04/15 01:25:58;;;;;;;11.43;5.55;;;4.60;99.90;;;;;;5003927;28;20120;-68
2023/04/15 01:28:24;;;;;;;8.45;4.82;;;4.50;99.90;;;;;;5002342;28;20056;-68
2023/04/15 01:30:50;;;;;;;12.95;5.15;;;4.50;99.90;;;;;;5011325;28;20045;-69
2023/04/15 01:33:15;;;;;;;10.02;5.43;;;4.40;99.90;;;;;;5003285;28;20088;-69
2023/04/15 01:35:43;;;;;;;10.90;4.78;;;4.40;99.90;;;;;;5002337;28;20022;-69
2023/04/15 01:38:11;;;;;;;9.85;5.47;;;4.30;99.90;;;;;;5003870;28;20158;-68
2023/04/15 01:40:37;;;;;;;8.40;5.63;;;4.30;99.90;;;;;;5013068;28;20064;-69
2023/04/15 01:43:03;;;;;;;11.80;6.15;;;4.30;99.90;;;;;;4994302;28;20041;-69
2023/04/15 01:45:28;;;;;;;12.45;5.18;;;4.30;99.90;;;;;;5001662;28;20131;-70
2023/04/15 01:47:54;;;;;;;9.48;5.47;;;4.20;99.90;;;;;;5004927;28;20123;-69
2023/04/15 01:50:20;;;;;;;16.95;5.53;;;4.20;99.90;;;;;;5006756;28;20061;-68
2023/04/15 01:52:47;;;;;;;15.38;5.60;;;4.10;99.90;;;;;;5007458;28;20040;-68
2023/04/15 01:55:13;;;;;;;11.30;6.03;;;4.10;99.90;;;;;;4990304;28;20041;-69
2023/04/15 01:57:39;;;;;;;13.20;6.55;;;4.10;99.90;;;;;;5004803;28;20053;-70
2023/04/15 02:00:06;;;;;;;12.93;6.85;;;4.10;99.90;;;;;;4962996;28;20057;-70
2023/04/15 02:02:33;;;;;;;11.45;5.80;;;4.10;99.90;;;;;;5007604;28;20038;-68
2023/04/15 02:04:58;;;;;;;10.25;6.05;;;4.10;99.90;;;;;;4989398;28;20030;-68
2023/04/15 02:07:24;;;;;;;10.93;5.30;;;4.00;99.90;;;;;;4974072;28;20375;-68
2023/04/15 02:09:50;;;;;;;13.35;6.10;;;4.00;99.90;;;;;;4988619;28;20485;-68
2023/04/15 02:12:15;;;;;;;12.70;6.50;;;4.00;99.90;;;;;;4995430;28;20041;-69
2023/04/15 02:14:41;;;;;;;11.70;6.18;;;4.00;99.90;;;;;;4987647;28;20037;-69
2023/04/15 02:17:07;;;;;;;11.93;6.10;;;4.00;99.90;;;;;;4982093;28;20074;-68
2023/04/15 02:19:36;;;;;;;12.55;6.43;;;4.00;99.90;;;;;;4988045;28;20045;-70
2023/04/15 02:22:01;;;;;;;17.55;6.50;;;4.00;99.90;;;;;;4992634;28;20034;-70
2023/04/15 02:24:29;;;;;;;10.77;5.97;;;3.90;99.90;;;;;;5008468;28;20519;-68
2023/04/15 02:26:55;;;;;;;11.73;6.75;;;3.90;99.90;;;;;;4986938;28;20599;-69
2023/04/15 02:29:21;;;;;;;11.70;6.38;;;3.90;99.90;;;;;;4987587;28;20125;-68
2023/04/15 02:31:47;;;;;;;14.45;6.38;;;3.80;99.90;;;;;;4986095;28;20041;-69
2023/04/15 02:34:13;;;;;;;12.02;6.63;;;3.80;99.90;;;;;;4984426;28;20038;-68
2023/04/15 02:36:39;;;;;;;11.38;7.07;;;3.90;99.90;;;;;;4986162;28;20049;-69
2023/04/15 02:39:05;;;;;;;11.15;6.93;;;3.80;99.90;;;;;;4990203;28;20057;-68
2023/04/15 02:41:30;;;;;;;11.68;7.00;;;3.80;99.90;;;;;;4988086;28;20497;-68
2023/04/15 02:43:56;;;;;;;10.35;6.30;;;3.90;99.90;;;;;;4987121;28;20041;-68
2023/04/15 02:46:22;;;;;;;13.82;6.60;;;3.80;99.90;;;;;;4981107;28;20033;-69
2023/04/15 02:48:48;;;;;;;11.32;7.25;;;3.80;99.90;;;;;;5003037;28;20065;-68
2023/04/15 02:51:17;;;;;;;14.00;7.13;;;3.80;99.90;;;;;;4986331;28;20050;-68
2023/04/15 02:53:42;;;;;;;12.73;6.47;;;3.80;99.90;;;;;;4999691;28;20072;-70
2023/04/15 02:56:08;;;;;;;10.98;6.70;;;3.70;99.90;;;;;;4963563;28;20081;-68
2023/04/15 02:58:35;;;;;;;13.85;7.78;;;3.70;99.90;;;;;;4998772;28;20057;-70
2023/04/15 03:01:01;;;;;;;13.25;7.35;;;3.70;99.90;;;;;;5003796;28;20091;-70
2023/04/15 03:03:27;;;;;;;14.93;7.53;;;3.60;99.90;;;;;;5003452;28;20052;-68
2023/04/15 03:05:53;;;;;;;12.88;7.32;;;3.60;99.90;;;;;;4993513;28;20057;-68
2023/04/15 03:08:20;;;;;;;11.57;6.78;;;3.50;99.90;;;;;;5000411;28;20035;-69
2023/04/15 03:10:46;;;;;;;15.57;7.88;;;3.50;99.90;;;;;;5002859;28;20581;-67
2023/04/15 03:13:11;;;;;;;11.55;6.53;;;3.50;99.90;;;;;;5000128;28;20495;-70
2023/04/15 03:15:37;;;;;;;12.38;6.90;;;3.40;99.90;;;;;;4980549;28;20116;-68
2023/04/15 03:18:03;;;;;;;13.13;6.97;;;3.40;99.90;;;;;;5001783;28;20037;-68
2023/04/15 03:20:28;;;;;;;15.32;7.38;;;3.40;99.90;;;;;;4999333;28;20041;-68
2023/04/15 03:22:54;;;;;;;12.00;6.68;;;3.30;99.90;;;;;;4999199;28;20130;-67
2023/04/15 03:25:20;;;;;;;12.00;6.85;;;3.30;99.90;;;;;;5004071;28;20046;-68
2023/04/15 03:27:46;;;;;;;17.95;7.80;;;3.30;99.90;;;;;;5010683;28;20362;-68
2023/04/15 03:30:12;;;;;;;13.52;7.20;;;3.30;99.90;;;;;;5007056;28;20053;-70
2023/04/15 03:32:38;;;;;;;12.80;7.03;;;3.30;99.90;;;;;;5013131;28;20034;-68
2023/04/15 03:35:03;;;;;;;14.55;7.60;;;3.30;99.90;;;;;;5002949;28;20025;-68
2023/04/15 03:37:29;;;;;;;13.88;7.50;;;3.20;99.90;;;;;;5003496;28;20041;-67
2023/04/15 03:39:55;;;;;;;10.38;6.57;;;3.20;99.90;;;;;;4983674;28;20041;-68
2023/04/15 03:42:21;;;;;;;14.32;7.35;;;3.20;99.90;;;;;;4989729;28;20049;-68
2023/04/15 03:44:46;;;;;;;13.30;7.03;;;3.10;99.90;;;;;;4994083;28;20044;-68
2023/04/15 03:47:12;;;;;;;14.18;7.65;;;3.10;99.90;;;;;;5003439;28;20053;-67
2023/04/15 03:49:37;;;;;;;13.57;7.00;;;3.10;99.90;;;;;;5007055;28;20064;-68
2023/04/15 03:52:03;;;;;;;15.20;8.25;;;3.00;99.90;;;;;;5004369;28;20077;-68
2023/04/15 03:54:29;;;;;;;14.77;7.82;;;3.00;99.90;;;;;;5009397;28;20045;-67
2023/04/15 03:56:55;;;;;;;14.68;8.07;;;3.00;99.90;;;;;;5003097;28;20048;-67
2023/04/15 03:59:21;;;;;;;13.75;6.88;;;3.00;99.90;;;;;;5002615;28;20057;-68
2023/04/15 04:01:46;;;;;;;16.80;7.60;;;3.00;99.90;;;;;;4985208;28;20045;-68
2023/04/15 04:04:12;;;;;;;16.30;8.52;;;3.00;99.90;;;;;;5000732;28;20458;-68
2023/04/15 04:06:38;;;;;;;15.38;8.18;;;2.90;99.90;;;;;;4994908;28;20045;-67
2023/04/15 04:09:03;;;;;;;17.02;8.55;;;2.90;99.90;;;;;;5011201;28;20034;-68
2023/04/15 04:11:29;;;;;;;16.48;8.38;;;3.00;99.90;;;;;;5009792;28;20038;-68
2023/04/15 04:13:55;;;;;;;17.38;8.93;;;3.00;99.90;;;;;;5008496;28;20481;-68
2023/04/15 04:16:20;;;;;;;17.15;8.45;;;2.90;99.90;;;;;;5005602;28;20041;-70
2023/04/15 04:18:46;;;;;;;14.95;8.25;;;2.90;99.90;;;;;;4995068;28;20474;-67
2023/04/15 04:21:12;;;;;;;14.88;8.23;;;2.90;99.90;;;;;;5008147;28;20595;-68
2023/04/15 04:23:37;;;;;;;17.42;8.00;;;2.90;99.90;;;;;;5005450;28;20477;-67
2023/04/15 04:26:03;;;;;;;15.30;8.77;;;2.90;99.90;;;;;;5010196;28;20046;-67
2023/04/15 04:28:28;;;;;;;15.45;8.63;;;2.90;99.90;;;;;;5004490;28;20121;-68
2023/04/15 04:30:54;;;;;;;19.02;8.52;;;2.90;99.90;;;;;;5000900;28;20041;-68
2023/04/15 04:33:20;;;;;;;18.35;8.90;;;2.90;99.90;;;;;;4999824;28;20038;-68
2023/04/15 04:35:45;;;;;;;18.25;9.52;;;2.90;99.90;;;;;;5005382;28;20114;-68
2023/04/15 04:38:11;;;;;;;19.98;9.88;;;2.80;99.90;;;;;;5022168;28;20052;-69
2023/04/15 04:40:36;;;;;;;18.40;8.93;;;2.80;99.90;;;;;;5009770;28;20444;-68
2023/04/15 04:43:02;;;;;;;19.05;9.77;;;2.80;99.90;;;;;;5003873;28;20033;-68
2023/04/15 04:45:27;;;;;;;21.98;9.93;;;2.80;99.90;;;;;;5000110;28;20036;-67
2023/04/15 04:47:53;;;;;;;19.50;9.23;;;2.90;99.90;;;;;;5004228;28;20083;-68
2023/04/15 04:50:18;;;;;;;18.35;10.02;;;3.00;99.90;;;;;;4993435;28;20038;-69
2023/04/15 04:52:44;;;;;;;19.95;8.77;;;3.00;99.90;;;;;;5009687;28;20033;-67
2023/04/15 04:55:10;;;;;;;22.17;9.80;;;2.90;99.90;;;;;;5007692;28;20065;-67
2023/04/15 04:57:36;;;;;;;19.10;9.27;;;3.00;99.90;;;;;;4989761;28;20612;-68
2023/04/15 05:00:03;;;;;;;17.70;9.57;;;2.90;99.90;;;;;;4991499;28;20056;-69
2023/04/15 05:02:29;;;;;;;17.05;9.02;;;2.90;99.90;;;;;;4998007;28;20056;-68
2023/04/15 05:04:55;;;;;;;17.08;9.55;;;2.90;99.90;;;;;;4984425;28;20482;-68
2023/04/15 05:07:21;;;;;;;17.85;9.05;;;2.90;99.90;;;;;;4997351;28;20037;-70
2023/04/15 05:09:46;;;;;;;18.45;9.57;;;2.80;99.90;;;;;;4991188;28;20524;-68
2023/04/15 05:12:13;;;;;;;19.20;9.50;;;2.80;99.90;;;;;;4998978;28;22893;-68
2023/04/15 05:14:40;;;;;;;19.08;9.63;;;2.90;99.90;;;;;;5009220;28;20462;-68
2023/04/15 05:17:06;;;;;;;19.70;9.95;;;2.90;99.90;;;;;;4996144;28;20124;-70
2023/04/15 05:19:32;;;;;;;21.67;10.95;;;3.00;99.90;;;;;;5001713;28;20043;-68
2023/04/15 05:21:58;;;;;;;23.42;11.25;;;2.90;99.90;;;;;;4999683;28;20474;-67
2023/04/15 05:24:24;;;;;;;24.13;11.35;;;3.00;99.90;;;;;;5018752;28;20061;-70
2023/04/15 05:26:50;;;;;;;22.42;11.43;;;3.20;99.90;;;;;;5002812;28;20043;-71
2023/04/15 05:29:15;;;;;;;23.50;11.68;;;3.20;99.90;;;;;;4986590;28;20037;-68
2023/04/15 05:31:41;;;;;;;25.60;12.77;;;3.30;99.90;;;;;;4988732;28;20041;-68
2023/04/15 05:34:07;;;;;;;27.73;11.98;;;3.50;99.90;;;;;;5005665;28;20042;-71
2023/04/15 05:36:33;;;;;;;26.95;12.07;;;3.60;99.90;;;;;;5004938;28;20375;-70
2023/04/15 05:38:58;;;;;;;25.45;12.95;;;3.70;99.90;;;;;;5017479;28;20045;-68
2023/04/15 05:41:24;;;;;;;25.20;11.73;;;3.90;99.90;;;;;;5000496;28;20095;-68
2023/04/15 05:43:50;;;;;;;26.58;12.20;;;4.00;99.90;;;;;;5005745;28;20046;-68
2023/04/15 05:46:15;;;;;;;26.38;12.30;;;4.20;99.90;;;;;;4995629;28;20469;-70
2023/04/15 05:48:41;;;;;;;25.75;13.65;;;4.40;99.90;;;;;;4994957;28;20137;-69
2023/04/15 05:51:07;;;;;;;28.33;13.00;;;4.50;99.90;;;;;;4982483;28;20049;-69
2023/04/15 05:53:32;;;;;;;31.02;13.23;;;4.60;99.90;;;;;;5002571;28;20148;-69
2023/04/15 05:55:58;;;;;;;28.23;13.52;;;4.70;99.90;;;;;;4983827;28;20382;-70
2023/04/15 05:58:23;;;;;;;32.20;14.57;;;4.90;99.90;;;;;;5015929;28;20584;-69
2023/04/15 06:00:49;;;;;;;31.00;14.07;;;5.00;99.90;;;;;;5026953;28;20049;-70
2023/04/15 06:03:15;;;;;;;30.30;14.90;;;5.10;99.90;;;;;;5002526;28;20081;-69
2023/04/15 06:05:44;;;;;;;35.17;15.82;;;5.20;99.90;;;;;;5002424;28;20045;-69
2023/04/15 06:08:10;;;;;;;28.85;13.70;;;5.20;99.90;;;;;;5001562;28;20502;-69
2023/04/15 06:10:35;;;;;;;31.27;14.68;;;5.40;99.90;;;;;;5005863;28;20042;-69
2023/04/15 06:13:05;;;;;;;28.42;14.23;;;5.40;99.90;;;;;;4987202;28;20143;-69
2023/04/15 06:15:30;;;;;;;30.58;14.15;;;5.50;99.90;;;;;;4999294;28;20034;-69
2023/04/15 06:17:56;;;;;;;30.30;13.48;;;5.60;99.90;;;;;;5011825;28;20037;-69
2023/04/15 06:20:22;;;;;;;29.00;14.02;;;5.70;99.90;;;;;;5007351;28;20042;-70
2023/04/15 06:22:48;;;;;;;29.48;14.20;;;5.80;99.90;;;;;;4999279;28;20049;-69
2023/04/15 06:25:14;;;;;;;26.25;13.00;;;5.90;99.90;;;;;;4994493;28;20034;-69
2023/04/15 06:27:40;;;;;;;28.70;13.55;;;6.10;99.90;;;;;;5000871;28;20042;-69
2023/04/15 06:30:06;;;;;;;30.05;14.02;;;6.10;99.90;;;;;;4977556;28;20089;-70
2023/04/15 06:32:32;;;;;;;27.83;13.48;;;6.20;99.90;;;;;;4982945;28;20557;-69
2023/04/15 06:34:57;;;;;;;26.95;13.23;;;6.20;99.90;;;;;;4995172;28;20069;-69
2023/04/15 06:37:23;;;;;;;29.35;13.40;;;6.30;99.90;;;;;;5001073;28;20038;-70
2023/04/15 06:39:49;;;;;;;23.98;13.00;;;6.30;99.90;;;;;;4997441;28;20132;-69
2023/04/15 06:42:15;;;;;;;25.30;12.88;;;6.50;99.90;;;;;;4997841;28;20077;-70
2023/04/15 06:44:40;;;;;;;25.83;13.23;;;6.50;99.90;;;;;;5012488;28;20045;-69
2023/04/15 06:47:06;;;;;;;23.48;12.75;;;6.60;99.90;;;;;;5010412;28;20085;-69
2023/04/15 06:49:32;;;;;;;26.88;13.40;;;6.60;99.90;;;;;;5005354;28;20112;-70
2023/04/15 06:51:59;;;;;;;26.38;12.95;;;6.70;99.90;;;;;;4988046;28;20103;-70
2023/04/15 06:54:25;;;;;;;28.02;13.48;;;6.80;99.90;;;;;;5009248;28;20046;-70
2023/04/15 06:56:51;;;;;;;22.77;12.40;;;6.90;99.90;;;;;;5010802;28;20045;-69
2023/04/15 06:59:17;;;;;;;24.67;13.43;;;7.00;99.90;;;;;;5009655;28;20054;-69
2023/04/15 07:01:42;;;;;;;25.05;12.45;;;7.10;99.90;;;;;;5017352;28;20397;-70
2023/04/15 07:04:08;;;;;;;21.10;12.05;;;7.20;99.90;;;;;;4985375;28;20126;-70
2023/04/15 07:06:34;;;;;;;23.77;12.25;;;7.30;99.90;;;;;;5005887;28;20124;-69
2023/04/15 07:09:00;;;;;;;23.95;12.27;;;7.40;99.90;;;;;;5015019;28;20091;-70
2023/04/15 07:11:26;;;;;;;24.75;12.38;;;7.40;99.90;;;;;;5005481;28;20039;-70
2023/04/15 07:13:51;;;;;;;23.23;11.98;;;7.50;99.90;;;;;;5003368;28;20171;-70
2023/04/15 07:16:18;;;;;;;21.75;11.07;;;7.60;99.90;;;;;;5012172;28;20049;-70
2023/04/15 07:18:43;;;;;;;20.70;11.35;;;7.60;99.90;;;;;;5013861;28;20121;-70
2023/04/15 07:21:09;;;;;;;21.55;11.48;;;7.70;99.90;;;;;;5026974;28;20144;-69
2023/04/15 07:23:35;;;;;;;21.40;10.68;;;7.80;99.90;;;;;;5011737;28;20050;-70
2023/04/15 07:26:02;;;;;;;20.50;10.55;;;7.80;99.90;;;;;;5011774;28;20033;-71
2023/04/15 07:28:27;;;;;;;21.75;11.32;;;7.90;99.90;;;;;;5014336;28;20140;-70
2023/04/15 07:30:53;;;;;;;21.95;11.02;;;8.00;99.90;;;;;;5019365;28;20124;-70
2023/04/15 07:33:19;;;;;;;23.23;11.27;;;8.10;99.90;;;;;;4993394;28;20465;-70
2023/04/15 07:35:45;;;;;;;22.35;11.25;;;8.20;99.90;;;;;;5007687;28;20059;-70
2023/04/15 07:38:13;;;;;;;18.92;10.55;;;8.30;99.90;;;;;;5013069;28;20069;-69
2023/04/15 07:40:39;;;;;;;18.63;9.68;;;8.40;99.90;;;;;;5011055;28;20034;-70
2023/04/15 07:43:05;;;;;;;18.73;10.00;;;8.50;99.90;;;;;;5005623;28;20120;-70
2023/04/15 07:45:31;;;;;;;22.33;10.52;;;8.60;99.90;;;;;;5013492;28;20029;-70
2023/04/15 07:47:57;;;;;;;20.20;9.98;;;8.60;99.90;;;;;;4997678;28;20048;-69
2023/04/15 07:50:23;;;;;;;18.60;10.52;;;8.60;99.90;;;;;;5010708;28;20397;-70
2023/04/15 07:52:50;;;;;;;16.48;10.05;;;8.70;99.90;;;;;;5011741;28;20389;-68
2023/04/15 07:55:18;;;;;;;15.55;8.88;;;8.70;99.90;;;;;;5012887;28;20045;-71
2023/04/15 07:57:43;;;;;;;20.17;9.75;;;8.80;99.90;;;;;;5010251;28;20132;-70
2023/04/15 08:00:10;;;;;;;10.60;6.38;;;8.90;99.90;;;;;;5009288;28;20124;-71
2023/04/15 08:02:36;;;;;;;15.40;7.22;;;8.90;99.90;;;;;;5011973;28;20140;-74
2023/04/15 08:05:03;;;;;;;13.77;7.45;;;9.00;99.90;;;;;;5011184;28;20509;-70
2023/04/15 08:07:28;;;;;;;12.88;6.63;;;9.10;99.90;;;;;;5011182;28;20156;-68
2023/04/15 08:09:54;;;;;;;9.90;5.68;;;9.20;99.90;;;;;;5007652;28;20116;-70
2023/04/15 08:12:20;;;;;;;9.68;5.15;;;9.20;99.90;;;;;;5013685;28;20108;-67
2023/04/15 08:14:46;;;;;;;12.30;6.20;;;9.30;99.90;;;;;;5010927;28;20038;-69
2023/04/15 08:17:11;;;;;;;10.30;5.82;;;9.20;99.90;;;;;;5014089;28;20481;-70
2023/04/15 08:19:37;;;;;;;8.65;5.22;;;9.20;99.90;;;;;;5008850;28;20042;-70
2023/04/15 08:22:03;;;;;;;10.75;5.93;;;9.20;99.90;;;;;;5009733;28;22415;-67
2023/04/15 08:24:30;;;;;;;9.77;5.05;;;9.20;99.90;;;;;;5009870;28;20634;-71
2023/04/15 08:26:56;;;;;;;12.27;6.00;;;9.20;99.90;;;;;;5013744;28;20033;-73
2023/04/15 08:29:22;;;;;;;10.70;5.70;;;9.20;99.90;;;;;;4995632;28;20048;-69
2023/04/15 08:31:47;;;;;;;10.18;5.28;;;9.20;99.90;;;;;;5015000;28;20034;-70
2023/04/15 08:34:14;;;;;;;11.95;5.57;;;9.10;99.90;;;;;;5031728;28;20029;-70
2023/04/15 08:36:40;;;;;;;10.68;4.78;;;9.00;99.90;;;;;;5034138;28;20037;-67
2023/04/15 08:39:06;;;;;;;5.65;3.90;;;9.00;99.90;;;;;;5032413;28;20059;-73
2023/04/15 08:41:45;;;;;;;7.07;4.25;;;8.90;99.90;;;;;;5016104;28;20045;-70
2023/04/15 08:44:12;;;;;;;7.88;3.90;;;8.90;99.90;;;;;;5015580;28;20045;-70
2023/04/15 08:46:38;;;;;;;6.22;3.70;;;8.90;99.90;;;;;;5013667;28;20037;-69
2023/04/15 08:49:04;;;;;;;9.25;3.83;;;9.00;99.90;;;;;;5032772;28;20040;-70
2023/04/15 08:51:31;;;;;;;7.45;3.78;;;9.00;99.90;;;;;;4993394;28;20051;-69
2023/04/15 08:53:58;;;;;;;8.10;3.83;;;9.00;99.90;;;;;;5017283;28;20049;-68
2023/04/15 08:56:25;;;;;;;8.15;4.22;;;9.00;99.90;;;;;;4998674;28;20033;-69
2023/04/15 08:58:52;;;;;;;8.85;4.28;;;9.00;99.90;;;;;;5030737;28;20071;-71
2023/04/15 09:01:18;;;;;;;8.02;3.88;;;9.00;99.90;;;;;;5012198;28;20382;-70
2023/04/15 09:03:44;;;;;;;6.88;3.47;;;9.00;99.90;;;;;;5014993;28;20052;-71
2023/04/15 09:06:10;;;;;;;5.45;3.25;;;9.00;99.90;;;;;;5011211;28;20773;-69
2023/04/15 09:08:36;;;;;;;6.03;3.58;;;9.20;99.90;;;;;;5011334;28;20048;-69
2023/04/15 09:11:02;;;;;;;7.65;3.70;;;9.40;99.90;;;;;;5010697;28;21055;-70
2023/04/15 09:13:29;;;;;;;6.45;2.95;;;9.40;99.90;;;;;;5008295;28;20439;-66
2023/04/15 09:15:55;;;;;;;8.90;3.20;;;9.50;99.90;;;;;;5013965;28;20064;-68
2023/04/15 09:18:32;;;;;;;5.18;2.88;;;9.60;99.90;;;;;;5011080;28;20037;-68
2023/04/15 09:21:12;;;;;;;3.92;2.50;;;9.60;99.90;;;;;;5014448;28;20046;-70
2023/04/15 09:23:59;;;;;;;5.43;3.05;;;9.60;99.90;;;;;;5009856;28;20026;-67
2023/04/15 09:26:39;;;;;;;4.53;2.65;;;9.70;99.90;;;;;;5016926;28;20051;-68
2023/04/15 09:29:14;;;;;;;5.45;3.38;;;9.70;99.90;;;;;;4999212;28;20456;-71
2023/04/15 09:31:40;;;;;;;4.15;2.50;;;9.70;99.90;;;;;;5014324;28;20041;-69
2023/04/15 09:34:06;;;;;;;7.68;2.95;;;9.60;99.90;;;;;;5014321;28;20077;-69
2023/04/15 09:36:52;;;;;;;5.63;3.03;;;9.60;99.90;;;;;;5012286;28;20065;-66
2023/04/15 09:39:17;;;;;;;6.03;2.70;;;9.60;99.90;;;;;;5016961;28;20048;-69
2023/04/15 09:41:43;;;;;;;5.57;2.70;;;9.60;99.90;;;;;;5030193;28;20041;-69
2023/04/15 09:44:25;;;;;;;3.92;2.45;;;9.60;99.90;;;;;;5015369;28;20132;-69
2023/04/15 09:46:51;;;;;;;3.05;2.33;;;9.60;99.90;;;;;;5011668;28;20416;-68
2023/04/15 09:49:17;;;;;;;5.38;2.78;;;9.60;99.90;;;;;;5011674;28;20144;-71
2023/04/15 09:51:43;;;;;;;3.88;2.45;;;9.70;99.90;;;;;;5031161;28;20076;-68
2023/04/15 09:54:09;;;;;;;4.88;2.50;;;9.70;99.90;;;;;;5005640;28;20526;-69
2023/04/15 09:56:37;;;;;;;5.35;2.17;;;9.80;99.90;;;;;;5010612;28;20050;-71
2023/04/15 09:59:04;;;;;;;4.35;2.30;;;9.90;99.90;;;;;;5025628;28;20053;-70
2023/04/15 10:01:30;;;;;;;4.55;2.45;;;10.00;99.90;;;;;;5015159;28;20046;-71
2023/04/15 10:03:56;;;;;;;3.22;2.05;;;10.00;99.90;;;;;;4999744;28;20083;-70
2023/04/15 10:06:25;;;;;;;5.65;2.47;;;10.00;99.90;;;;;;5012522;28;20037;-68
2023/04/15 10:08:51;;;;;;;3.95;2.42;;;10.00;99.90;;;;;;5015522;28;20403;-68
2023/04/15 10:11:20;;;;;;;3.97;2.20;;;10.00;99.90;;;;;;5031119;28;20095;-67
2023/04/15 10:13:47;;;;;;;4.15;2.30;;;9.90;99.90;;;;;;5007278;28;20044;-71
2023/04/15 10:16:15;;;;;;;3.58;2.38;;;10.00;99.90;;;;;;5010532;28;20041;-70
2023/04/15 10:18:46;;;;;;;6.60;2.30;;;10.00;99.90;;;;;;5015737;28;20432;-68
2023/04/15 10:21:15;;;;;;;6.22;2.50;;;10.00;99.90;;;;;;5010775;28;20073;-69
2023/04/15 10:23:41;;;;;;;7.43;2.50;;;9.90;99.90;;;;;;5007181;28;20049;-67
2023/04/15 10:26:07;;;;;;;4.43;2.55;;;9.80;99.90;;;;;;5014139;28;20096;-67
2023/04/15 10:28:33;;;;;;;3.30;2.17;;;9.90;99.90;;;;;;5013593;28;20034;-67
2023/04/15 10:31:00;;;;;;;7.60;2.78;;;9.90;99.90;;;;;;4998561;28;20064;-70
2023/04/15 10:33:27;;;;;;;4.70;2.65;;;9.90;99.90;;;;;;4999189;28;20439;-69
2023/04/15 10:35:55;;;;;;;4.82;2.50;;;10.00;99.90;;;;;;5010877;28;20080;-69
2023/04/15 10:38:34;;;;;;;4.88;2.42;;;10.00;99.90;;;;;;5032163;28;20037;-69
2023/04/15 10:41:17;;;;;;;4.63;2.30;;;10.00;99.90;;;;;;5009122;28;20449;-69
2023/04/15 10:44:03;;;;;;;3.88;2.03;;;10.00;99.90;;;;;;4999585;28;20034;-68
2023/04/15 10:46:38;;;;;;;6.55;2.40;;;10.00;99.90;;;;;;5010942;28;20091;-68
2023/04/15 10:49:12;;;;;;;3.05;2.00;;;10.00;99.90;;;;;;5014465;28;20044;-69
2023/04/15 10:51:50;;;;;;;5.22;1.92;;;10.00;99.90;;;;;;5028601;28;20033;-67
2023/04/15 10:54:24;;;;;;;6.53;2.20;;;10.20;99.90;;;;;;5013408;28;20048;-69
2023/04/15 10:57:05;;;;;;;2.65;2.00;;;10.40;99.90;;;;;;5004364;28;20064;-67
2023/04/15 10:59:51;;;;;;;4.35;1.98;;;10.50;99.90;;;;;;5010476;28;20061;-69
2023/04/15 11:02:17;;;;;;;5.80;2.20;;;10.70;99.90;;;;;;4996794;28;20057;-67
2023/04/15 11:04:56;;;;;;;5.75;2.10;;;10.80;99.90;;;;;;5021241;28;20038;-68
2023/04/15 11:07:34;;;;;;;6.40;1.97;;;10.60;99.90;;;;;;5017536;28;20437;-68
2023/04/15 11:10:00;;;;;;;4.60;1.90;;;10.50;99.90;;;;;;5007080;28;20424;-69
2023/04/15 11:12:35;;;;;;;12.18;2.53;;;10.50;99.90;;;;;;5028536;28;20086;-72
2023/04/15 11:15:30;;;;;;;4.38;2.22;;;10.50;99.90;;;;;;5007952;28;20060;-69
2023/04/15 11:17:57;;;;;;;5.63;2.53;;;10.50;99.90;;;;;;5011001;28;20616;-69
2023/04/15 11:20:23;;;;;;;4.45;2.47;;;10.40;99.90;;;;;;5017612;28;20041;-70
2023/04/15 11:22:53;;;;;;;3.72;2.30;;;10.30;99.90;;;;;;5018502;28;20033;-65
2023/04/15 11:25:27;;;;;;;3.78;2.28;;;10.30;99.90;;;;;;5008942;28;20367;-66
2023/04/15 11:27:54;;;;;;;5.28;2.35;;;10.50;99.90;;;;;;5022713;28;20428;-67
2023/04/15 11:30:24;;;;;;;6.68;2.88;;;10.50;99.90;;;;;;5009282;28;20037;-69
2023/04/15 11:32:51;;;;;;;5.70;2.90;;;10.60;99.90;;;;;;5030188;28;20041;-67
2023/04/15 11:35:17;;;;;;;6.43;2.90;;;10.40;99.90;;;;;;4977834;28;20172;-65
2023/04/15 11:37:44;;;;;;;8.07;2.90;;;10.40;99.90;;;;;;5013365;28;20041;-66
2023/04/15 11:40:11;;;;;;;4.40;2.67;;;10.40;99.90;;;;;;5011691;28;20504;-66
2023/04/15 11:42:36;;;;;;;4.05;2.58;;;10.50;99.90;;;;;;5012002;28;20045;-65
2023/04/15 11:45:09;;;;;;;6.90;2.58;;;10.90;99.90;;;;;;5027851;28;20037;-65
2023/04/15 11:47:39;;;;;;;6.70;3.28;;;11.20;99.90;;;;;;5027288;28;20041;-69
2023/04/15 11:50:18;;;;;;;4.95;2.78;;;11.20;99.90;;;;;;5011115;28;20045;-65
2023/04/15 11:53:04;;;;;;;5.20;2.58;;;11.00;99.90;;;;;;5013210;28;20049;-66
2023/04/15 11:55:30;;;;;;;6.90;3.17;;;10.70;99.90;;;;;;5009156;28;20511;-69
2023/04/15 11:58:15;;;;;;;6.30;3.03;;;10.60;99.90;;;;;;5021340;28;20050;-72
2023/04/15 12:00:49;;;;;;;5.72;2.92;;;10.50;99.90;;;;;;5026736;28;20510;-70
2023/04/15 12:03:25;;;;;;;10.68;3.20;;;10.50;99.90;;;;;;4997060;28;20119;-69
2023/04/15 12:06:07;;;;;;;4.85;2.60;;;10.60;99.90;;;;;;5003017;28;20044;-70
2023/04/15 12:08:57;;;;;;;8.18;2.97;;;10.70;99.90;;;;;;4999607;28;20160;-71
2023/04/15 12:11:25;;;;;;;3.97;1.83;;;10.70;99.90;;;;;;4999021;28;20429;-70
2023/04/15 12:13:54;;;;;;;3.95;2.10;;;10.70;99.90;;;;;;5009483;28;20128;-70
2023/04/15 12:16:20;;;;;;;6.38;2.65;;;10.70;99.90;;;;;;5004104;28;20033;-70
2023/04/15 12:18:50;;;;;;;5.85;2.50;;;10.60;99.90;;;;;;5009224;28;20144;-67
2023/04/15 12:21:18;;;;;;;7.90;2.47;;;10.50;99.90;;;;;;4991298;28;20042;-69
2023/04/15 12:23:54;;;;;;;6.35;2.13;;;10.40;99.90;;;;;;5006507;28;20048;-69
2023/04/15 12:26:28;;;;;;;3.70;2.17;;;10.40;99.90;;;;;;5022597;28;20037;-69
2023/04/15 12:29:00;;;;;;;4.93;2.13;;;10.30;99.90;;;;;;5001101;28;20034;-72
2023/04/15 12:31:26;;;;;;;5.40;1.98;;;10.20;99.90;;;;;;5000641;28;20034;-70
2023/04/15 12:33:54;;;;;;;6.65;2.40;;;10.10;99.90;;;;;;5015363;28;20044;-74
2023/04/15 12:36:20;;;;;;;4.47;1.80;;;10.10;99.90;;;;;;5017892;28;20037;-67
2023/04/15 12:38:45;;;;;;;3.78;2.00;;;10.00;99.90;;;;;;5013040;28;20359;-69
2023/04/15 12:41:11;;;;;;;6.35;2.15;;;10.10;99.90;;;;;;4977654;28;20034;-69
2023/04/15 12:43:36;;;;;;;6.13;2.22;;;10.10;99.90;;;;;;5005496;28;20041;-69
2023/04/15 12:46:03;;;;;;;9.93;2.45;;;10.00;99.90;;;;;;5008788;28;20593;-68
2023/04/15 12:48:29;;;;;;;5.00;2.50;;;10.00;99.90;;;;;;5007384;28;20038;-71